sensor_id;sensor_type;location;lat;lon;timestamp;temperature;humidity
60033;DHT22;45905;50.570;10.428;2022-08-01T00:00:50;20.00;74.40
60033;DHT22;45905;50.570;10.428;2022-08-01T00:03:17;19.90;74.40
60033;DHT22;45905;50.570;10.428;2022-08-01T00:05:45;19.80;74.70
60033;DHT22;45905;50.570;10.428;2022-08-01T00:08:13;19.70;75.10
60033;DHT22;45905;50.570;10.428;2022-08-01T00:10:40;19.70;76.00
60033;DHT22;45905;50.570;10.428;2022-08-01T00:13:07;19.60;76.40
60033;DHT22;45905;50.570;10.428;2022-08-01T00:15:36;19.60;76.00
60033;DHT22;45905;50.570;10.428;2022-08-01T00:18:03;19.60;76.20
60033;DHT22;45905;50.570;10.428;2022-08-01T00:20:30;19.60;76.40
60033;DHT22;45905;50.570;10.428;2022-08-01T00:22:58;19.60;76.80
60033;DHT22;45905;50.570;10.428;2022-08-01T00:25:25;19.60;76.70
60033;DHT22;45905;50.570;10.428;2022-08-01T00:28:00;19.60;76.40
60033;DHT22;45905;50.570;10.428;2022-08-01T00:30:30;19.50;76.70
60033;DHT22;45905;50.570;10.428;2022-08-01T00:32:57;19.50;76.60
60033;DHT22;45905;50.570;10.428;2022-08-01T00:35:25;19.50;76.90
60033;DHT22;45905;50.570;10.428;2022-08-01T00:37:52;19.40;77.30
60033;DHT22;45905;50.570;10.428;2022-08-01T00:40:19;19.40;77.80
60033;DHT22;45905;50.570;10.428;2022-08-01T00:42:47;19.30;78.20
60033;DHT22;45905;50.570;10.428;2022-08-01T00:45:14;19.20;78.40
60033;DHT22;45905;50.570;10.428;2022-08-01T00:47:42;19.10;79.20
60033;DHT22;45905;50.570;10.428;2022-08-01T00:50:10;19.10;79.10
60033;DHT22;45905;50.570;10.428;2022-08-01T00:52:39;19.10;79.30
60033;DHT22;45905;50.570;10.428;2022-08-01T00:55:08;19.10;79.30
60033;DHT22;45905;50.570;10.428;2022-08-01T00:57:41;19.10;79.30
60033;DHT22;45905;50.570;10.428;2022-08-01T01:00:28;19.10;79.40
60033;DHT22;45905;50.570;10.428;2022-08-01T01:02:59;19.10;79.20
60033;DHT22;45905;50.570;10.428;2022-08-01T01:05:26;19.10;79.40
60033;DHT22;45905;50.570;10.428;2022-08-01T01:08:01;19.10;78.80
60033;DHT22;45905;50.570;10.428;2022-08-01T01:10:48;19.00;79.10
60033;DHT22;45905;50.570;10.428;2022-08-01T01:13:38;19.00;79.20
60033;DHT22;45905;50.570;10.428;2022-08-01T01:16:18;19.00;79.20
60033;DHT22;45905;50.570;10.428;2022-08-01T01:18:53;19.00;79.20
60033;DHT22;45905;50.570;10.428;2022-08-01T01:24:31;18.90;79.60
60033;DHT22;45905;50.570;10.428;2022-08-01T01:27:42;18.90;79.70
60033;DHT22;45905;50.570;10.428;2022-08-01T01:30:16;18.90;80.30
60033;DHT22;45905;50.570;10.428;2022-08-01T01:32:49;18.80;80.90
60033;DHT22;45905;50.570;10.428;2022-08-01T01:35:22;18.80;81.30
60033;DHT22;45905;50.570;10.428;2022-08-01T01:38:04;18.70;82.60
60033;DHT22;45905;50.570;10.428;2022-08-01T01:40:34;18.70;82.20
60033;DHT22;45905;50.570;10.428;2022-08-01T01:43:02;18.70;81.20
60033;DHT22;45905;50.570;10.428;2022-08-01T01:45:31;18.70;80.60
60033;DHT22;45905;50.570;10.428;2022-08-01T01:48:01;18.70;81.20
60033;DHT22;45905;50.570;10.428;2022-08-01T01:50:29;18.70;81.60
60033;DHT22;45905;50.570;10.428;2022-08-01T01:52:59;18.70;81.60
60033;DHT22;45905;50.570;10.428;2022-08-01T01:55:30;18.60;81.60
60033;DHT22;45905;50.570;10.428;2022-08-01T01:58:15;18.60;83.20
60033;DHT22;45905;50.570;10.428;2022-08-01T02:00:45;18.60;84.00
60033;DHT22;45905;50.570;10.428;2022-08-01T02:03:17;18.60;84.20
60033;DHT22;45905;50.570;10.428;2022-08-01T02:05:47;18.60;83.40
60033;DHT22;45905;50.570;10.428;2022-08-01T02:08:16;18.60;83.10
60033;DHT22;45905;50.570;10.428;2022-08-01T02:10:45;18.60;83.70
60033;DHT22;45905;50.570;10.428;2022-08-01T02:13:34;18.60;83.50
60033;DHT22;45905;50.570;10.428;2022-08-01T02:16:05;18.60;83.70
60033;DHT22;45905;50.570;10.428;2022-08-01T02:18:35;18.60;83.90
60033;DHT22;45905;50.570;10.428;2022-08-01T02:21:05;18.50;82.40
60033;DHT22;45905;50.570;10.428;2022-08-01T02:23:37;18.50;82.00
60033;DHT22;45905;50.570;10.428;2022-08-01T02:26:14;18.50;83.00
60033;DHT22;45905;50.570;10.428;2022-08-01T02:28:50;18.50;83.30
60033;DHT22;45905;50.570;10.428;2022-08-01T02:31:23;18.40;83.60
60033;DHT22;45905;50.570;10.428;2022-08-01T02:33:58;18.40;83.90
60033;DHT22;45905;50.570;10.428;2022-08-01T02:36:33;18.30;83.30
60033;DHT22;45905;50.570;10.428;2022-08-01T02:39:06;18.30;82.80
60033;DHT22;45905;50.570;10.428;2022-08-01T02:41:40;18.30;83.50
60033;DHT22;45905;50.570;10.428;2022-08-01T02:44:21;18.30;83.80
60033;DHT22;45905;50.570;10.428;2022-08-01T02:46:54;18.30;83.10
60033;DHT22;45905;50.570;10.428;2022-08-01T02:49:29;18.30;82.70
60033;DHT22;45905;50.570;10.428;2022-08-01T02:52:06;18.30;83.10
60033;DHT22;45905;50.570;10.428;2022-08-01T02:54:37;18.30;84.30
60033;DHT22;45905;50.570;10.428;2022-08-01T02:57:08;18.30;85.40
60033;DHT22;45905;50.570;10.428;2022-08-01T02:59:41;18.30;86.20
60033;DHT22;45905;50.570;10.428;2022-08-01T03:02:11;18.30;86.70
60033;DHT22;45905;50.570;10.428;2022-08-01T03:04:41;18.30;86.90
60033;DHT22;45905;50.570;10.428;2022-08-01T03:07:11;18.40;87.00
60033;DHT22;45905;50.570;10.428;2022-08-01T03:09:43;18.40;87.10
60033;DHT22;45905;50.570;10.428;2022-08-01T03:12:15;18.40;86.40
60033;DHT22;45905;50.570;10.428;2022-08-01T03:14:47;18.40;86.70
60033;DHT22;45905;50.570;10.428;2022-08-01T03:17:20;18.40;86.40
60033;DHT22;45905;50.570;10.428;2022-08-01T03:19:50;18.30;86.60
60033;DHT22;45905;50.570;10.428;2022-08-01T03:22:21;18.30;86.10
60033;DHT22;45905;50.570;10.428;2022-08-01T03:24:52;18.30;87.60
60033;DHT22;45905;50.570;10.428;2022-08-01T03:27:22;18.20;88.40
60033;DHT22;45905;50.570;10.428;2022-08-01T03:29:52;18.20;88.20
60033;DHT22;45905;50.570;10.428;2022-08-01T03:32:23;18.20;87.30
60033;DHT22;45905;50.570;10.428;2022-08-01T03:34:52;18.20;87.00
60033;DHT22;45905;50.570;10.428;2022-08-01T03:37:27;18.20;86.70
60033;DHT22;45905;50.570;10.428;2022-08-01T03:40:22;18.20;87.50
60033;DHT22;45905;50.570;10.428;2022-08-01T03:42:56;18.30;88.10
60033;DHT22;45905;50.570;10.428;2022-08-01T03:45:38;18.30;88.00
60033;DHT22;45905;50.570;10.428;2022-08-01T03:48:16;18.30;88.30
60033;DHT22;45905;50.570;10.428;2022-08-01T03:50:50;18.30;88.20
60033;DHT22;45905;50.570;10.428;2022-08-01T03:53:23;18.30;87.70
60033;DHT22;45905;50.570;10.428;2022-08-01T03:55:53;18.30;87.70
60033;DHT22;45905;50.570;10.428;2022-08-01T03:58:22;18.20;89.50
60033;DHT22;45905;50.570;10.428;2022-08-01T04:00:50;18.20;88.70
60033;DHT22;45905;50.570;10.428;2022-08-01T04:03:18;18.20;88.50
60033;DHT22;45905;50.570;10.428;2022-08-01T04:05:45;18.20;88.50
60033;DHT22;45905;50.570;10.428;2022-08-01T04:08:12;18.20;87.80
60033;DHT22;45905;50.570;10.428;2022-08-01T04:10:40;18.20;88.10
60033;DHT22;45905;50.570;10.428;2022-08-01T04:13:07;18.20;87.70
60033;DHT22;45905;50.570;10.428;2022-08-01T04:15:35;18.20;87.30
60033;DHT22;45905;50.570;10.428;2022-08-01T04:18:02;18.10;88.10
60033;DHT22;45905;50.570;10.428;2022-08-01T04:20:30;18.10;88.20
60033;DHT22;45905;50.570;10.428;2022-08-01T04:22:57;18.20;88.60
60033;DHT22;45905;50.570;10.428;2022-08-01T04:25:28;18.20;88.80
60033;DHT22;45905;50.570;10.428;2022-08-01T04:28:00;18.20;89.50
60033;DHT22;45905;50.570;10.428;2022-08-01T04:30:34;18.20;89.70
60033;DHT22;45905;50.570;10.428;2022-08-01T04:33:04;18.10;89.70
60033;DHT22;45905;50.570;10.428;2022-08-01T04:35:36;18.10;89.70
60033;DHT22;45905;50.570;10.428;2022-08-01T04:38:28;18.10;89.60
60033;DHT22;45905;50.570;10.428;2022-08-01T04:40:57;18.20;90.50
60033;DHT22;45905;50.570;10.428;2022-08-01T04:43:37;18.20;90.40
60033;DHT22;45905;50.570;10.428;2022-08-01T04:46:08;18.20;90.60
60033;DHT22;45905;50.570;10.428;2022-08-01T04:48:38;18.30;90.50
60033;DHT22;45905;50.570;10.428;2022-08-01T04:51:16;18.30;90.30
60033;DHT22;45905;50.570;10.428;2022-08-01T04:53:45;18.30;90.10
60033;DHT22;45905;50.570;10.428;2022-08-01T04:56:13;18.30;90.20
60033;DHT22;45905;50.570;10.428;2022-08-01T04:58:41;18.40;90.50
60033;DHT22;45905;50.570;10.428;2022-08-01T05:01:09;18.40;91.30
60033;DHT22;45905;50.570;10.428;2022-08-01T05:03:37;18.50;90.90
60033;DHT22;45905;50.570;10.428;2022-08-01T05:06:05;18.50;90.60
60033;DHT22;45905;50.570;10.428;2022-08-01T05:08:33;18.50;90.50
60033;DHT22;45905;50.570;10.428;2022-08-01T05:11:00;18.50;90.40
60033;DHT22;45905;50.570;10.428;2022-08-01T05:13:28;18.60;90.20
60033;DHT22;45905;50.570;10.428;2022-08-01T05:15:55;18.60;91.10
60033;DHT22;45905;50.570;10.428;2022-08-01T05:18:22;18.70;91.40
60033;DHT22;45905;50.570;10.428;2022-08-01T05:20:54;18.70;91.60
60033;DHT22;45905;50.570;10.428;2022-08-01T05:23:21;18.80;91.70
60033;DHT22;45905;50.570;10.428;2022-08-01T05:26:10;18.80;91.70
60033;DHT22;45905;50.570;10.428;2022-08-01T05:28:41;18.90;91.70
60033;DHT22;45905;50.570;10.428;2022-08-01T05:31:08;18.90;91.70
60033;DHT22;45905;50.570;10.428;2022-08-01T05:33:35;19.00;91.80
60033;DHT22;45905;50.570;10.428;2022-08-01T05:36:03;19.00;91.90
60033;DHT22;45905;50.570;10.428;2022-08-01T05:38:30;19.00;91.80
60033;DHT22;45905;50.570;10.428;2022-08-01T05:40:57;19.10;91.90
60033;DHT22;45905;50.570;10.428;2022-08-01T05:43:24;19.10;91.70
60033;DHT22;45905;50.570;10.428;2022-08-01T05:45:55;19.20;91.80
60033;DHT22;45905;50.570;10.428;2022-08-01T05:48:22;19.20;91.70
60033;DHT22;45905;50.570;10.428;2022-08-01T05:50:49;19.30;91.60
60033;DHT22;45905;50.570;10.428;2022-08-01T05:53:24;19.40;91.70
60033;DHT22;45905;50.570;10.428;2022-08-01T05:55:51;19.50;91.70
60033;DHT22;45905;50.570;10.428;2022-08-01T05:58:18;19.50;91.80
60033;DHT22;45905;50.570;10.428;2022-08-01T06:00:45;19.60;92.00
60033;DHT22;45905;50.570;10.428;2022-08-01T06:03:12;19.70;91.80
60033;DHT22;45905;50.570;10.428;2022-08-01T06:05:41;19.80;91.70
60033;DHT22;45905;50.570;10.428;2022-08-01T06:08:08;19.80;91.80
60033;DHT22;45905;50.570;10.428;2022-08-01T06:10:35;19.80;92.00
60033;DHT22;45905;50.570;10.428;2022-08-01T06:13:03;19.80;92.20
60033;DHT22;45905;50.570;10.428;2022-08-01T06:15:31;19.70;92.30
60033;DHT22;45905;50.570;10.428;2022-08-01T06:17:59;19.70;92.50
60033;DHT22;45905;50.570;10.428;2022-08-01T06:20:26;19.60;92.50
60033;DHT22;45905;50.570;10.428;2022-08-01T06:22:54;19.60;92.60
60033;DHT22;45905;50.570;10.428;2022-08-01T06:25:22;19.60;92.40
60033;DHT22;45905;50.570;10.428;2022-08-01T06:27:49;19.60;92.20
60033;DHT22;45905;50.570;10.428;2022-08-01T06:30:16;19.60;92.00
60033;DHT22;45905;50.570;10.428;2022-08-01T06:32:43;19.60;92.00
60033;DHT22;45905;50.570;10.428;2022-08-01T06:35:11;19.60;91.90
60033;DHT22;45905;50.570;10.428;2022-08-01T06:37:38;19.70;91.90
60033;DHT22;45905;50.570;10.428;2022-08-01T06:40:08;19.70;91.80
60033;DHT22;45905;50.570;10.428;2022-08-01T06:42:42;19.70;92.00
60033;DHT22;45905;50.570;10.428;2022-08-01T06:45:12;19.60;92.10
60033;DHT22;45905;50.570;10.428;2022-08-01T06:47:41;19.60;92.30
60033;DHT22;45905;50.570;10.428;2022-08-01T06:50:14;19.60;92.30
60033;DHT22;45905;50.570;10.428;2022-08-01T06:52:41;19.60;92.30
60033;DHT22;45905;50.570;10.428;2022-08-01T06:55:09;19.70;92.20
60033;DHT22;45905;50.570;10.428;2022-08-01T06:57:42;19.70;91.90
60033;DHT22;45905;50.570;10.428;2022-08-01T07:00:12;19.70;92.40
60033;DHT22;45905;50.570;10.428;2022-08-01T07:02:40;19.80;92.20
60033;DHT22;45905;50.570;10.428;2022-08-01T07:05:08;19.80;92.20
60033;DHT22;45905;50.570;10.428;2022-08-01T07:07:36;19.80;92.20
60033;DHT22;45905;50.570;10.428;2022-08-01T07:10:04;19.90;92.40
60033;DHT22;45905;50.570;10.428;2022-08-01T07:12:32;19.90;92.40
60033;DHT22;45905;50.570;10.428;2022-08-01T07:14:59;20.00;92.20
60033;DHT22;45905;50.570;10.428;2022-08-01T07:17:27;20.00;92.10
60033;DHT22;45905;50.570;10.428;2022-08-01T07:19:54;20.00;92.00
60033;DHT22;45905;50.570;10.428;2022-08-01T07:22:23;20.00;92.20
60033;DHT22;45905;50.570;10.428;2022-08-01T07:24:52;20.00;92.30
60033;DHT22;45905;50.570;10.428;2022-08-01T07:27:20;20.00;92.40
60033;DHT22;45905;50.570;10.428;2022-08-01T07:29:51;20.00;93.20
60033;DHT22;45905;50.570;10.428;2022-08-01T07:32:19;19.90;93.50
60033;DHT22;45905;50.570;10.428;2022-08-01T07:34:46;19.90;93.60
60033;DHT22;45905;50.570;10.428;2022-08-01T07:37:14;19.80;93.60
60033;DHT22;45905;50.570;10.428;2022-08-01T07:39:41;19.80;93.80
60033;DHT22;45905;50.570;10.428;2022-08-01T07:42:08;19.80;93.80
60033;DHT22;45905;50.570;10.428;2022-08-01T07:44:36;19.80;94.00
60033;DHT22;45905;50.570;10.428;2022-08-01T07:47:05;19.80;94.10
60033;DHT22;45905;50.570;10.428;2022-08-01T07:49:33;19.80;94.00
60033;DHT22;45905;50.570;10.428;2022-08-01T07:52:05;19.80;93.70
60033;DHT22;45905;50.570;10.428;2022-08-01T07:54:33;19.90;94.20
60033;DHT22;45905;50.570;10.428;2022-08-01T07:57:02;19.80;94.00
60033;DHT22;45905;50.570;10.428;2022-08-01T07:59:30;19.80;94.10
60033;DHT22;45905;50.570;10.428;2022-08-01T08:01:57;19.80;94.20
60033;DHT22;45905;50.570;10.428;2022-08-01T08:04:26;19.80;94.30
60033;DHT22;45905;50.570;10.428;2022-08-01T08:06:54;19.90;94.20
60033;DHT22;45905;50.570;10.428;2022-08-01T08:09:22;19.80;94.10
60033;DHT22;45905;50.570;10.428;2022-08-01T08:11:50;19.80;94.10
60033;DHT22;45905;50.570;10.428;2022-08-01T08:14:17;19.80;94.10
60033;DHT22;45905;50.570;10.428;2022-08-01T08:16:45;19.90;94.00
60033;DHT22;45905;50.570;10.428;2022-08-01T08:19:13;19.90;93.60
60033;DHT22;45905;50.570;10.428;2022-08-01T08:21:40;19.90;93.70
60033;DHT22;45905;50.570;10.428;2022-08-01T08:24:08;20.00;93.50
60033;DHT22;45905;50.570;10.428;2022-08-01T08:26:56;20.00;93.40
60033;DHT22;45905;50.570;10.428;2022-08-01T08:29:25;20.10;93.50
60033;DHT22;45905;50.570;10.428;2022-08-01T08:31:54;20.10;93.80
60033;DHT22;45905;50.570;10.428;2022-08-01T08:34:23;20.20;93.80
60033;DHT22;45905;50.570;10.428;2022-08-01T08:36:52;20.20;93.50
60033;DHT22;45905;50.570;10.428;2022-08-01T08:39:19;20.20;93.50
60033;DHT22;45905;50.570;10.428;2022-08-01T08:41:47;20.20;93.20
60033;DHT22;45905;50.570;10.428;2022-08-01T08:44:16;20.30;93.30
60033;DHT22;45905;50.570;10.428;2022-08-01T08:46:46;20.30;93.90
60033;DHT22;45905;50.570;10.428;2022-08-01T08:49:21;20.20;93.80
60033;DHT22;45905;50.570;10.428;2022-08-01T08:51:51;20.30;93.60
60033;DHT22;45905;50.570;10.428;2022-08-01T08:54:21;20.30;93.60
60033;DHT22;45905;50.570;10.428;2022-08-01T08:56:58;20.40;93.30
60033;DHT22;45905;50.570;10.428;2022-08-01T08:59:27;20.40;93.40
60033;DHT22;45905;50.570;10.428;2022-08-01T09:01:56;20.40;92.10
60033;DHT22;45905;50.570;10.428;2022-08-01T09:04:25;20.40;91.70
60033;DHT22;45905;50.570;10.428;2022-08-01T09:06:54;20.40;90.60
60033;DHT22;45905;50.570;10.428;2022-08-01T09:09:22;20.30;90.80
60033;DHT22;45905;50.570;10.428;2022-08-01T09:11:50;20.30;91.00
60033;DHT22;45905;50.570;10.428;2022-08-01T09:14:22;20.30;91.10
60033;DHT22;45905;50.570;10.428;2022-08-01T09:17:06;20.20;91.00
60033;DHT22;45905;50.570;10.428;2022-08-01T09:19:46;20.20;91.20
60033;DHT22;45905;50.570;10.428;2022-08-01T09:22:22;20.30;91.50
60033;DHT22;45905;50.570;10.428;2022-08-01T09:25:09;20.30;91.40
60033;DHT22;45905;50.570;10.428;2022-08-01T09:27:38;20.30;92.40
60033;DHT22;45905;50.570;10.428;2022-08-01T09:30:16;20.40;92.50
60033;DHT22;45905;50.570;10.428;2022-08-01T09:33:00;20.40;92.00
60033;DHT22;45905;50.570;10.428;2022-08-01T09:35:37;20.50;91.10
60033;DHT22;45905;50.570;10.428;2022-08-01T09:38:21;20.50;91.30
60033;DHT22;45905;50.570;10.428;2022-08-01T09:40:54;20.50;92.00
60033;DHT22;45905;50.570;10.428;2022-08-01T09:43:28;20.50;91.20
60033;DHT22;45905;50.570;10.428;2022-08-01T09:45:59;20.50;90.70
60033;DHT22;45905;50.570;10.428;2022-08-01T09:48:31;20.50;90.80
60033;DHT22;45905;50.570;10.428;2022-08-01T09:51:00;20.50;90.80
60033;DHT22;45905;50.570;10.428;2022-08-01T09:53:46;20.60;90.60
60033;DHT22;45905;50.570;10.428;2022-08-01T09:56:19;20.60;90.50
60033;DHT22;45905;50.570;10.428;2022-08-01T09:58:59;20.70;91.70
60033;DHT22;45905;50.570;10.428;2022-08-01T10:01:48;20.70;92.20
60033;DHT22;45905;50.570;10.428;2022-08-01T10:04:21;20.70;91.50
60033;DHT22;45905;50.570;10.428;2022-08-01T10:06:50;20.90;90.50
60033;DHT22;45905;50.570;10.428;2022-08-01T10:09:32;20.90;90.30
60033;DHT22;45905;50.570;10.428;2022-08-01T10:12:08;21.00;90.10
60033;DHT22;45905;50.570;10.428;2022-08-01T10:14:49;21.00;90.30
60033;DHT22;45905;50.570;10.428;2022-08-01T10:17:18;21.10;90.20
60033;DHT22;45905;50.570;10.428;2022-08-01T10:19:48;21.10;90.20
60033;DHT22;45905;50.570;10.428;2022-08-01T10:22:18;21.20;90.10
60033;DHT22;45905;50.570;10.428;2022-08-01T10:24:54;21.30;88.50
60033;DHT22;45905;50.570;10.428;2022-08-01T10:27:25;21.30;88.40
60033;DHT22;45905;50.570;10.428;2022-08-01T10:30:06;21.40;89.00
60033;DHT22;45905;50.570;10.428;2022-08-01T10:32:50;21.40;89.30
60033;DHT22;45905;50.570;10.428;2022-08-01T10:35:21;21.50;90.00
60033;DHT22;45905;50.570;10.428;2022-08-01T10:38:08;21.60;88.70
60033;DHT22;45905;50.570;10.428;2022-08-01T10:40:41;21.70;89.40
60033;DHT22;45905;50.570;10.428;2022-08-01T10:43:10;21.80;88.70
60033;DHT22;45905;50.570;10.428;2022-08-01T10:45:39;21.90;87.70
60033;DHT22;45905;50.570;10.428;2022-08-01T10:48:14;21.90;87.00
60033;DHT22;45905;50.570;10.428;2022-08-01T10:50:48;22.00;86.30
60033;DHT22;45905;50.570;10.428;2022-08-01T10:53:21;22.10;86.00
60033;DHT22;45905;50.570;10.428;2022-08-01T10:55:58;22.10;85.80
60033;DHT22;45905;50.570;10.428;2022-08-01T10:58:37;22.20;86.80
60033;DHT22;45905;50.570;10.428;2022-08-01T11:01:20;22.40;87.70
60033;DHT22;45905;50.570;10.428;2022-08-01T11:04:04;22.50;87.20
60033;DHT22;45905;50.570;10.428;2022-08-01T11:07:04;22.60;85.80
60033;DHT22;45905;50.570;10.428;2022-08-01T11:09:40;22.70;85.70
60033;DHT22;45905;50.570;10.428;2022-08-01T11:12:17;22.70;84.80
60033;DHT22;45905;50.570;10.428;2022-08-01T11:17:42;22.70;83.60
60033;DHT22;45905;50.570;10.428;2022-08-01T11:20:28;22.70;83.30
60033;DHT22;45905;50.570;10.428;2022-08-01T11:28:26;22.70;84.60
60033;DHT22;45905;50.570;10.428;2022-08-01T11:41:32;22.70;82.50
60033;DHT22;45905;50.570;10.428;2022-08-01T11:44:09;22.70;82.80
60033;DHT22;45905;50.570;10.428;2022-08-01T11:46:56;22.80;83.30
60033;DHT22;45905;50.570;10.428;2022-08-01T11:52:25;23.00;83.00
60033;DHT22;45905;50.570;10.428;2022-08-01T11:54:55;23.20;83.90
60033;DHT22;45905;50.570;10.428;2022-08-01T11:57:36;23.40;84.70
60033;DHT22;45905;50.570;10.428;2022-08-01T12:00:17;23.60;84.10
60033;DHT22;45905;50.570;10.428;2022-08-01T12:03:00;23.70;85.40
60033;DHT22;45905;50.570;10.428;2022-08-01T12:05:35;24.00;81.20
60033;DHT22;45905;50.570;10.428;2022-08-01T12:08:09;24.10;80.70
60033;DHT22;45905;50.570;10.428;2022-08-01T12:10:37;24.20;79.60
60033;DHT22;45905;50.570;10.428;2022-08-01T12:13:15;24.20;78.80
60033;DHT22;45905;50.570;10.428;2022-08-01T12:15:45;24.20;79.10
60033;DHT22;45905;50.570;10.428;2022-08-01T12:18:14;24.20;79.20
60033;DHT22;45905;50.570;10.428;2022-08-01T12:20:45;24.20;78.90
60033;DHT22;45905;50.570;10.428;2022-08-01T12:23:26;24.20;78.00
60033;DHT22;45905;50.570;10.428;2022-08-01T12:25:54;24.20;78.80
60033;DHT22;45905;50.570;10.428;2022-08-01T12:28:23;24.20;78.90
60033;DHT22;45905;50.570;10.428;2022-08-01T12:30:54;24.30;78.70
60033;DHT22;45905;50.570;10.428;2022-08-01T12:33:24;24.40;79.40
60033;DHT22;45905;50.570;10.428;2022-08-01T12:35:54;24.50;77.30
60033;DHT22;45905;50.570;10.428;2022-08-01T12:38:27;24.50;75.90
60033;DHT22;45905;50.570;10.428;2022-08-01T12:41:13;24.60;75.80
60033;DHT22;45905;50.570;10.428;2022-08-01T12:43:41;24.60;76.80
60033;DHT22;45905;50.570;10.428;2022-08-01T12:46:09;24.60;76.60
60033;DHT22;45905;50.570;10.428;2022-08-01T12:48:53;24.70;76.20
60033;DHT22;45905;50.570;10.428;2022-08-01T12:51:21;24.70;74.80
60033;DHT22;45905;50.570;10.428;2022-08-01T12:54:00;24.80;74.90
60033;DHT22;45905;50.570;10.428;2022-08-01T12:56:32;24.80;73.50
60033;DHT22;45905;50.570;10.428;2022-08-01T12:59:28;24.80;73.10
60033;DHT22;45905;50.570;10.428;2022-08-01T13:01:55;24.80;73.00
60033;DHT22;45905;50.570;10.428;2022-08-01T13:04:25;24.80;73.20
60033;DHT22;45905;50.570;10.428;2022-08-01T13:06:55;24.80;72.60
60033;DHT22;45905;50.570;10.428;2022-08-01T13:09:25;24.80;73.00
60033;DHT22;45905;50.570;10.428;2022-08-01T13:11:53;24.80;73.70
60033;DHT22;45905;50.570;10.428;2022-08-01T13:14:30;24.80;73.40
60033;DHT22;45905;50.570;10.428;2022-08-01T13:16:58;24.90;71.90
60033;DHT22;45905;50.570;10.428;2022-08-01T13:20:01;24.90;72.70
60033;DHT22;45905;50.570;10.428;2022-08-01T13:22:36;25.10;71.70
60033;DHT22;45905;50.570;10.428;2022-08-01T13:25:18;25.20;72.10
60033;DHT22;45905;50.570;10.428;2022-08-01T13:28:18;25.40;71.50
60033;DHT22;45905;50.570;10.428;2022-08-01T13:30:56;25.50;69.50
60033;DHT22;45905;50.570;10.428;2022-08-01T13:33:46;25.50;69.10
60033;DHT22;45905;50.570;10.428;2022-08-01T13:36:25;25.50;68.60
60033;DHT22;45905;50.570;10.428;2022-08-01T13:38:55;25.50;69.70
60033;DHT22;45905;50.570;10.428;2022-08-01T13:41:40;25.50;70.60
60033;DHT22;45905;50.570;10.428;2022-08-01T13:44:08;25.60;71.70
60033;DHT22;45905;50.570;10.428;2022-08-01T13:46:36;25.70;71.20
60033;DHT22;45905;50.570;10.428;2022-08-01T13:49:15;25.90;71.30
60033;DHT22;45905;50.570;10.428;2022-08-01T13:51:44;26.10;71.50
60033;DHT22;45905;50.570;10.428;2022-08-01T13:54:13;26.30;69.50
60033;DHT22;45905;50.570;10.428;2022-08-01T13:56:40;26.60;67.30
60033;DHT22;45905;50.570;10.428;2022-08-01T13:59:09;26.80;68.40
60033;DHT22;45905;50.570;10.428;2022-08-01T14:01:36;27.10;70.10
60033;DHT22;45905;50.570;10.428;2022-08-01T14:04:04;27.30;67.20
60033;DHT22;45905;50.570;10.428;2022-08-01T14:06:32;27.50;63.80
60033;DHT22;45905;50.570;10.428;2022-08-01T14:09:05;27.70;62.90
60033;DHT22;45905;50.570;10.428;2022-08-01T14:11:49;27.80;61.10
60033;DHT22;45905;50.570;10.428;2022-08-01T14:14:16;27.90;59.30
60033;DHT22;45905;50.570;10.428;2022-08-01T14:16:44;27.90;60.30
60033;DHT22;45905;50.570;10.428;2022-08-01T14:19:13;27.90;59.30
60033;DHT22;45905;50.570;10.428;2022-08-01T14:21:45;28.00;61.10
60033;DHT22;45905;50.570;10.428;2022-08-01T14:24:12;28.10;60.50
60033;DHT22;45905;50.570;10.428;2022-08-01T14:26:39;28.20;58.00
60033;DHT22;45905;50.570;10.428;2022-08-01T14:29:06;28.30;56.60
60033;DHT22;45905;50.570;10.428;2022-08-01T14:31:33;28.30;56.60
60033;DHT22;45905;50.570;10.428;2022-08-01T14:34:01;28.30;56.80
60033;DHT22;45905;50.570;10.428;2022-08-01T14:36:28;28.30;54.70
60033;DHT22;45905;50.570;10.428;2022-08-01T14:39:03;28.20;55.30
60033;DHT22;45905;50.570;10.428;2022-08-01T14:41:32;28.20;56.30
60033;DHT22;45905;50.570;10.428;2022-08-01T14:43:59;28.30;56.60
60033;DHT22;45905;50.570;10.428;2022-08-01T14:46:26;28.40;56.30
60033;DHT22;45905;50.570;10.428;2022-08-01T14:48:57;28.50;54.30
60033;DHT22;45905;50.570;10.428;2022-08-01T14:51:24;28.60;53.40
60033;DHT22;45905;50.570;10.428;2022-08-01T14:53:51;28.60;55.00
60033;DHT22;45905;50.570;10.428;2022-08-01T14:56:20;28.70;53.40
60033;DHT22;45905;50.570;10.428;2022-08-01T14:58:47;28.70;50.10
60033;DHT22;45905;50.570;10.428;2022-08-01T15:01:14;28.60;50.50
60033;DHT22;45905;50.570;10.428;2022-08-01T15:03:41;28.60;48.70
60033;DHT22;45905;50.570;10.428;2022-08-01T15:06:09;28.40;49.60
60033;DHT22;45905;50.570;10.428;2022-08-01T15:08:38;28.30;50.80
60033;DHT22;45905;50.570;10.428;2022-08-01T15:11:05;28.20;51.40
60033;DHT22;45905;50.570;10.428;2022-08-01T15:13:32;28.20;51.90
60033;DHT22;45905;50.570;10.428;2022-08-01T15:16:02;28.10;52.00
60033;DHT22;45905;50.570;10.428;2022-08-01T15:18:30;28.10;51.70
60033;DHT22;45905;50.570;10.428;2022-08-01T15:21:00;28.10;51.60
60033;DHT22;45905;50.570;10.428;2022-08-01T15:23:27;28.10;52.10
60033;DHT22;45905;50.570;10.428;2022-08-01T15:25:54;28.10;52.40
60033;DHT22;45905;50.570;10.428;2022-08-01T15:28:21;28.10;50.80
60033;DHT22;45905;50.570;10.428;2022-08-01T15:30:49;28.10;51.20
60033;DHT22;45905;50.570;10.428;2022-08-01T15:33:16;28.10;52.50
60033;DHT22;45905;50.570;10.428;2022-08-01T15:35:44;28.10;52.40
60033;DHT22;45905;50.570;10.428;2022-08-01T15:38:11;28.20;52.20
60033;DHT22;45905;50.570;10.428;2022-08-01T15:40:38;28.20;51.80
60033;DHT22;45905;50.570;10.428;2022-08-01T15:43:05;28.20;52.00
60033;DHT22;45905;50.570;10.428;2022-08-01T15:45:32;28.20;51.70
60033;DHT22;45905;50.570;10.428;2022-08-01T15:48:16;28.20;51.40
60033;DHT22;45905;50.570;10.428;2022-08-01T15:50:43;28.10;50.90
60033;DHT22;45905;50.570;10.428;2022-08-01T15:53:11;28.00;50.90
60033;DHT22;45905;50.570;10.428;2022-08-01T15:55:39;28.00;51.90
60033;DHT22;45905;50.570;10.428;2022-08-01T15:58:06;28.00;51.80
60033;DHT22;45905;50.570;10.428;2022-08-01T16:00:37;28.10;52.30
60033;DHT22;45905;50.570;10.428;2022-08-01T16:03:07;28.10;52.30
60033;DHT22;45905;50.570;10.428;2022-08-01T16:05:36;28.10;52.00
60033;DHT22;45905;50.570;10.428;2022-08-01T16:08:10;28.10;51.30